Nearby METAR Reports

 

EDNY - Friedrichshafen, Germany
Distance from station: ONO 32km
aktuell: 19.11.2017 21:50
Few Clouds
Few Clouds
 Wind von varies
Wind: varies 2 km/h
Temperatur: 1°C
Taupunkt: 0°C
Luftfeuchte: 93%
Luftdruck: 1024 hPa
Clouds: Few Clouds
Visibility: 10 km
Cloud details: Few Clouds 427 m
2017/11/19 20:50 EDNY 192050Z AUTO VRB01KT 9999 FEW014 01/M00 Q1024
LSZR - Rheineck/Altenrh, Switzerland
Distance from station: OSO 37km
aktuell: 19.11.2017 22:20
geschlossene Wolkendecke
geschlossene Wolkendecke
 Wind von WSW
Wind: WSW 7 km/h
Temperatur: 5°C
gefühlte Temperatur: 3°C
Taupunkt: -1°C
Luftfeuchte: 66%
Luftdruck: 1024 hPa
Clouds: geschlossene Wolkendecke
Visibility: 10 km
Cloud details: geschlossene Wolkendecke 1524 m
2017/11/19 21:20 LSZR 192120Z AUTO 25004KT 190V310 9999 OVC050 05/M01 Q1024
LSMD - Dubendorf, Switzerland
Distance from station: SW 40km
aktuell: 19.11.2017 21:50
stark bewölkt
stark bewölkt
 Wind von SO
Wind: SO 4 km/h
Temperatur: 2°C
Taupunkt: 1°C
Luftfeuchte: 93%
Luftdruck: 1025 hPa
Clouds: stark bewölkt
Visibility: 11 miles
Cloud details: Few Clouds 549 m
stark bewölkt 1676 m
2017/11/19 20:50 LSMD 192050Z AUTO 14002KT 7000NDV FEW018 BKN055 02/01 Q1025 RMK
 
LSZH - Zurich-Kloten (a, Switzerland
Distance from station: WSW 44km
aktuell: 19.11.2017 22:20
stark bewölkt
stark bewölkt
 Wind von SO
Wind: SO 6 km/h
Temperatur: 1°C
Taupunkt: 0°C
Luftfeuchte: 93%
Luftdruck: 1025 hPa
Clouds: stark bewölkt
Visibility: 10 km
Cloud details: Few Clouds 457 m
teilweise bewölkt 671 m
stark bewölkt 1707 m
2017/11/19 21:20 LSZH 192120Z 14003KT 9999 FEW015 SCT022 BKN056 01/M00 Q1025 NOSIG
LOIH - Hohenems-Dornbir, Austria
Distance from station: OSO 51km
aktuell: 31.10.2016 17:00
NOT Current
geschlossene Wolkendecke
geschlossene Wolkendecke
 Wind von calm
Wind: Windstill
Temperatur: 10°C
Taupunkt: 9°C
Luftfeuchte: 94%
Luftdruck: 1026 hPa
Clouds: geschlossene Wolkendecke
Cloud details: geschlossene Wolkendecke 305 m
2016/10/31 16:00 LOIH 311600Z 00000KT 10KM OVC010ST 10/09 Q1026 RMK OVC
LSME - Emmen, Switzerland
Distance from station: SW 82km
aktuell: 19.11.2017 21:50
geschlossene Wolkendecke
geschlossene Wolkendecke
 Wind von calm
Wind: Windstill
Temperatur: 3°C
Taupunkt: 2°C
Luftfeuchte: 93%
Luftdruck: 1025 hPa
Clouds: geschlossene Wolkendecke
Visibility: 16 miles
Cloud details: geschlossene Wolkendecke 1494 m
2017/11/19 20:50 LSME 192050Z AUTO 00000KT 9999NDV OVC049 03/02 Q1025 RMK
 
LSZC - Buochs, Switzerland
Distance from station: SW 89km
aktuell: 19.11.2017 22:20
teilweise bewölkt
teilweise bewölkt
 Wind von W
Wind: W 6 km/h
Temperatur: 4°C
Taupunkt: 2°C
Luftfeuchte: 87%
Luftdruck: 1025 hPa
Clouds: teilweise bewölkt
Visibility: 10 km
Cloud details: stark bewölkt 1280 m
teilweise bewölkt 1524 m
2017/11/19 21:20 LSZC 192120Z AUTO 28003KT 9999 BKN042 SCT050 04/02 Q1025
ETHL - Laupheim (ger-Ar, Germany
Distance from station: NO 92km
aktuell: 19.11.2017 22:20
stark bewölkt
stark bewölkt
 Wind von WSW
Wind: WSW 13 km/h
Temperatur: 2°C
gefühlte Temperatur: -1°C
Taupunkt: -1°C
Luftfeuchte: 81%
Luftdruck: 1022 hPa
Clouds: stark bewölkt
Visibility: 10 km
Cloud details: Few Clouds 610 m
stark bewölkt 1524 m
2017/11/19 21:20 ETHL 192120Z 25007KT 9999 FEW020 BKN050 02/M01 Q1022 BLU
EDJA - Memmingen Allgau, Germany
Distance from station: ONO 95km
aktuell: 19.11.2017 22:20
stark bewölkt
stark bewölkt
 Wind von SW
Wind: SW 15 km/h
Temperatur: 1°C
gefühlte Temperatur: -3°C
Taupunkt: 0°C
Luftfeuchte: 93%
Luftdruck: 1022 hPa
Clouds: stark bewölkt
Visibility: 10 km
Cloud details: stark bewölkt 1494 m
2017/11/19 21:20 EDJA 192120Z 22008KT 9999 BKN049 01/M00 Q1022
 
LSMA - Alpnach, Switzerland
Distance from station: SW 95km
aktuell: 19.11.2017 21:50
geschlossene Wolkendecke
geschlossene Wolkendecke
 Wind von varies
Wind: varies 4 km/h
Temperatur: 3°C
Taupunkt: 2°C
Luftfeuchte: 93%
Luftdruck: 1025 hPa
Clouds: geschlossene Wolkendecke
Visibility: 16 miles
Cloud details: stark bewölkt 1097 m
geschlossene Wolkendecke 1372 m
2017/11/19 20:50 LSMA 192050Z AUTO VRB02KT 9999NDV BKN036 OVC045 03/02 Q1025 RMK